Time;durP1;ratioP1;P1;durP2;ratioP2;P2;SDS_P1;SDS_P2;PMS_P1;PMS_P2;Temp;Humidity;BMP_temperature;BMP_pressure;BME280_temperature;BME280_humidity;BME280_pressure;Samples;Min_cycle;Max_cycle;Signal;HPM_P1;HPM_P2
2023/08/05 06:41:12;;;;;;;8.63;4.75;;;;;;;15.34;90.88;96539.56;2115245;27;20903;-66
2023/08/05 06:43:39;;;;;;;8.68;4.07;;;;;;;16.15;89.64;96528.94;2100214;27;20555;-66
2023/08/05 06:46:02;;;;;;;10.20;4.53;;;;;;;16.11;87.95;96520.44;2100783;27;20556;-66
2023/08/05 06:48:26;;;;;;;10.05;4.18;;;;;;;16.22;86.64;96527.59;2083908;28;20553;-66
2023/08/05 06:50:53;;;;;;;9.25;3.92;;;;;;;16.63;86.51;96530.91;2093029;27;20558;-69
2023/08/05 06:53:21;;;;;;;8.68;4.90;;;;;;;16.41;85.52;96532.41;2084261;28;20577;-67
2023/08/05 06:56:01;;;;;;;12.45;5.03;;;;;;;16.23;86.67;96529.28;2084987;28;20558;-66
2023/08/05 06:58:30;;;;;;;10.07;5.30;;;;;;;16.43;86.13;96527.03;2098858;27;20554;-66
2023/08/05 07:00:55;;;;;;;8.40;4.18;;;;;;;16.73;85.34;96525.81;2089332;28;21078;-66
2023/08/05 07:01:56;;;;;;;13.40;4.38;;;;;;;16.96;83.87;96526.81;2091796;28;20204;-66
2023/08/05 07:02:58;;;;;;;11.40;3.88;;;;;;;16.77;83.93;96522.00;2090866;28;20199;-69
2023/08/05 07:05:23;;;;;;;7.00;4.32;;;;;;;17.10;82.77;96520.56;2085257;28;20563;-67
2023/08/05 07:06:24;;;;;;;9.05;4.07;;;;;;;17.30;83.80;96529.66;2083742;28;20263;-67
2023/08/05 07:07:26;;;;;;;9.13;4.60;;;;;;;17.29;82.46;96530.59;2080893;28;20291;-67
2023/08/05 07:08:28;;;;;;;5.47;3.40;;;;;;;17.27;83.03;96525.44;2083497;28;20196;-69
2023/08/05 07:09:31;;;;;;;6.68;3.63;;;;;;;17.27;83.39;96535.16;2077077;28;20586;-69
2023/08/05 07:10:32;;;;;;;9.95;4.68;;;;;;;16.95;83.43;96528.63;2073192;28;20726;-69
2023/08/05 07:11:35;;;;;;;8.30;3.95;;;;;;;17.30;83.08;96527.00;2072065;28;20846;-69
2023/08/05 07:12:38;;;;;;;13.63;4.60;;;;;;;17.39;82.53;96528.97;2070796;28;20251;-69
2023/08/05 07:13:39;;;;;;;8.85;4.28;;;;;;;17.63;81.27;96528.09;2072135;28;20579;-69
2023/08/05 07:14:44;;;;;;;17.70;3.67;;;;;;;17.73;80.47;96529.06;2072686;28;20237;-69
2023/08/05 07:15:45;;;;;;;7.88;4.75;;;;;;;17.78;80.37;96526.09;2073309;28;20744;-69
2023/08/05 07:16:47;;;;;;;6.72;4.35;;;;;;;18.04;80.58;96528.56;2074566;28;20217;-69
2023/08/05 07:17:48;;;;;;;11.38;4.15;;;;;;;18.34;80.24;96529.81;2075432;28;20276;-69
2023/08/05 07:18:50;;;;;;;11.18;5.22;;;;;;;18.20;79.23;96526.44;2074302;28;20216;-69
2023/08/05 07:19:51;;;;;;;6.68;3.70;;;;;;;18.30;77.73;96528.34;2075363;28;20236;-69
2023/08/05 07:20:53;;;;;;;6.15;4.20;;;;;;;18.82;77.45;96531.38;2074522;28;20198;-69
2023/08/05 07:21:55;;;;;;;4.78;2.92;;;;;;;18.95;77.21;96533.91;2070901;28;20262;-69
2023/08/05 07:22:56;;;;;;;7.30;3.80;;;;;;;19.03;76.87;96542.03;2073220;28;20198;-69
2023/08/05 07:23:58;;;;;;;9.02;3.78;;;;;;;18.58;77.12;96545.56;2073571;28;20240;-69
2023/08/05 07:24:59;;;;;;;7.90;4.05;;;;;;;18.74;76.71;96538.09;2070331;28;20711;-69
2023/08/05 07:26:01;;;;;;;7.25;3.78;;;;;;;18.50;77.14;96543.53;2075186;28;20596;-69
2023/08/05 07:27:04;;;;;;;7.82;3.97;;;;;;;18.23;77.71;96541.22;2074873;28;20206;-69
2023/08/05 07:28:05;;;;;;;12.85;4.00;;;;;;;18.00;77.75;96545.63;2074178;28;20743;-69
2023/08/05 07:29:06;;;;;;;9.75;4.20;;;;;;;17.83;78.11;96542.44;2073740;28;20445;-69
2023/08/05 07:30:08;;;;;;;18.23;6.15;;;;;;;17.65;78.52;96538.53;2074767;28;20209;-69
2023/08/05 07:31:10;;;;;;;8.05;4.15;;;;;;;17.21;79.64;96538.25;2075034;28;20283;-69
2023/08/05 07:32:12;;;;;;;7.38;4.13;;;;;;;17.05;80.78;96547.28;2073893;28;20213;-69
2023/08/05 07:33:14;;;;;;;13.40;4.28;;;;;;;17.04;80.57;96544.72;2074802;28;20198;-69
2023/08/05 07:34:16;;;;;;;9.40;4.30;;;;;;;16.79;81.19;96542.03;2073316;28;20237;-69
2023/08/05 07:35:17;;;;;;;8.27;3.38;;;;;;;16.68;82.79;96549.88;2075299;28;20701;-69
2023/08/05 07:36:22;;;;;;;7.32;3.35;;;;;;;16.65;83.17;96540.38;2073394;28;20228;-69
2023/08/05 07:37:24;;;;;;;9.38;4.38;;;;;;;16.90;82.46;96537.78;2070750;28;20293;-69
2023/08/05 07:38:27;;;;;;;8.00;3.88;;;;;;;16.95;82.97;96539.19;2075067;28;20276;-69
2023/08/05 07:39:33;;;;;;;8.25;3.65;;;;;;;17.54;82.02;96539.34;2074711;28;20291;-69
2023/08/05 07:40:38;;;;;;;7.32;3.85;;;;;;;17.71;79.95;96538.06;2071604;28;20206;-69
2023/08/05 07:41:40;;;;;;;7.95;4.10;;;;;;;17.26;80.39;96536.94;2071655;28;20197;-69
2023/08/05 07:42:45;;;;;;;6.50;3.65;;;;;;;17.77;80.09;96541.09;2071920;28;20665;-69
2023/08/05 07:43:47;;;;;;;7.38;4.50;;;;;;;18.48;78.35;96539.31;2074244;28;20213;-69
2023/08/05 07:44:51;;;;;;;6.25;3.38;;;;;;;18.91;76.37;96530.66;2075612;28;20296;-70
2023/08/05 07:45:52;;;;;;;5.25;3.30;;;;;;;19.16;74.29;96526.88;2074867;28;20205;-69
2023/08/05 07:46:54;;;;;;;6.35;3.60;;;;;;;19.51;74.84;96528.41;2069797;28;20209;-70
2023/08/05 07:47:56;;;;;;;6.50;3.35;;;;;;;19.57;73.95;96529.72;2072686;28;20240;-69
2023/08/05 07:49:00;;;;;;;4.47;3.10;;;;;;;19.50;73.75;96521.44;2070655;28;20209;-69
2023/08/05 07:50:04;;;;;;;7.47;3.80;;;;;;;19.35;76.08;96528.84;2072674;28;20236;-69
2023/08/05 07:51:07;;;;;;;5.75;3.15;;;;;;;19.20;75.03;96530.09;2073990;28;20194;-70
2023/08/05 07:52:08;;;;;;;13.95;3.70;;;;;;;19.00;74.89;96521.97;2072704;28;20289;-69
2023/08/05 07:53:09;;;;;;;7.22;3.55;;;;;;;19.03;74.59;96528.81;2075854;28;20876;-69
2023/08/05 07:54:11;;;;;;;6.85;3.88;;;;;;;18.84;74.96;96527.63;2071822;28;20256;-69
2023/08/05 07:55:12;;;;;;;6.25;3.70;;;;;;;18.60;74.78;96533.91;2072442;28;20198;-69
2023/08/05 07:56:15;;;;;;;7.53;3.90;;;;;;;18.35;75.31;96532.34;2070742;28;20657;-69
2023/08/05 07:57:16;;;;;;;6.07;3.92;;;;;;;18.39;77.26;96530.31;2073856;28;20204;-69
2023/08/05 07:58:19;;;;;;;7.32;3.20;;;;;;;18.33;76.73;96531.59;2073517;28;20201;-69
2023/08/05 07:59:20;;;;;;;7.00;3.35;;;;;;;18.35;77.37;96521.75;2074307;28;20274;-69
2023/08/05 08:00:22;;;;;;;6.80;3.40;;;;;;;18.48;76.59;96523.44;2075888;28;20314;-69
2023/08/05 08:01:23;;;;;;;6.93;3.25;;;;;;;18.64;76.66;96521.28;2073744;28;20244;-69
2023/08/05 08:02:25;;;;;;;7.03;3.70;;;;;;;18.67;76.35;96517.56;2073206;28;20194;-69
2023/08/05 08:03:29;;;;;;;6.85;3.70;;;;;;;18.48;75.64;96526.09;2073201;28;20198;-68
2023/08/05 08:04:32;;;;;;;8.18;3.88;;;;;;;18.39;76.35;96519.72;2072898;28;20252;-68
2023/08/05 08:05:34;;;;;;;6.63;3.45;;;;;;;18.43;76.67;96521.16;2073995;28;20220;-68
2023/08/05 08:06:36;;;;;;;4.70;3.58;;;;;;;18.55;76.14;96509.63;2074188;28;20530;-68
2023/08/05 08:07:37;;;;;;;7.60;3.50;;;;;;;18.97;75.71;96516.06;2073967;28;20198;-68
2023/08/05 08:08:38;;;;;;;6.93;3.40;;;;;;;19.45;74.82;96526.25;2073695;28;20210;-69
2023/08/05 08:09:40;;;;;;;8.38;3.97;;;;;;;19.39;73.19;96519.69;2073215;28;20232;-68
2023/08/05 08:10:41;;;;;;;8.18;3.50;;;;;;;19.38;73.09;96519.81;2074282;28;20213;-68
2023/08/05 08:11:43;;;;;;;7.30;3.53;;;;;;;19.49;72.25;96508.31;2074707;28;20550;-68
2023/08/05 08:12:46;;;;;;;8.63;3.55;;;;;;;19.95;71.03;96516.88;2074769;28;20740;-68
2023/08/05 08:13:48;;;;;;;7.63;2.92;;;;;;;20.37;71.32;96511.56;2070655;28;20657;-68
2023/08/05 08:14:49;;;;;;;8.55;2.90;;;;;;;20.42;71.88;96506.69;2070671;28;20242;-68
2023/08/05 08:15:50;;;;;;;6.95;2.95;;;;;;;20.56;70.86;96516.09;2072951;28;20208;-68
2023/08/05 08:16:52;;;;;;;8.73;2.92;;;;;;;20.42;70.47;96508.47;2069208;28;20208;-68
2023/08/05 08:17:54;;;;;;;7.25;2.70;;;;;;;20.53;70.09;96509.25;2070594;28;20190;-68
2023/08/05 08:18:56;;;;;;;5.47;3.15;;;;;;;20.33;69.64;96508.31;2069369;28;20233;-68
2023/08/05 08:19:57;;;;;;;7.15;3.42;;;;;;;20.55;70.86;96509.94;2069441;28;20248;-68
2023/08/05 08:20:59;;;;;;;8.05;3.28;;;;;;;20.22;70.72;96511.06;2068248;28;20198;-68
2023/08/05 08:22:00;;;;;;;6.60;3.20;;;;;;;20.01;70.23;96513.72;2068096;28;20755;-68
2023/08/05 08:23:02;;;;;;;4.90;3.15;;;;;;;20.00;70.60;96512.06;2065230;28;20237;-68
2023/08/05 08:24:03;;;;;;;6.38;3.00;;;;;;;19.87;70.74;96507.81;2067140;28;20220;-68
2023/08/05 08:25:05;;;;;;;4.60;3.10;;;;;;;19.76;71.82;96505.19;2067272;28;20202;-68
2023/08/05 08:26:06;;;;;;;4.45;3.08;;;;;;;19.71;71.86;96502.91;2065599;28;20581;-68
2023/08/05 08:27:08;;;;;;;5.45;3.20;;;;;;;19.46;70.83;96503.28;2067725;28;20205;-68
2023/08/05 08:28:09;;;;;;;10.02;3.03;;;;;;;19.24;70.73;96507.72;2065055;28;20198;-68
2023/08/05 08:29:11;;;;;;;6.10;3.10;;;;;;;19.37;71.37;96510.19;2065457;28;20569;-68
2023/08/05 08:30:12;;;;;;;3.80;3.03;;;;;;;19.35;72.19;96504.16;2068587;28;20248;-68
2023/08/05 08:31:14;;;;;;;5.20;3.10;;;;;;;19.75;72.09;96506.16;2068516;28;20210;-68
2023/08/05 08:32:15;;;;;;;5.82;2.70;;;;;;;19.50;70.17;96496.75;2068215;28;20250;-68
2023/08/05 08:33:17;;;;;;;6.43;2.80;;;;;;;19.85;71.21;96496.47;2069091;28;20241;-68
2023/08/05 08:34:18;;;;;;;4.43;2.30;;;;;;;19.79;70.40;96489.00;2064484;28;20802;-68
2023/08/05 08:35:20;;;;;;;5.45;2.40;;;;;;;19.92;70.50;96493.31;2065053;28;20290;-68
2023/08/05 08:36:21;;;;;;;4.00;1.80;;;;;;;19.94;68.65;96491.38;2067031;28;20249;-68
2023/08/05 08:37:23;;;;;;;10.63;2.40;;;;;;;20.38;67.97;96487.53;2068939;28;20296;-68
2023/08/05 08:38:25;;;;;;;4.80;2.53;;;;;;;20.46;67.59;96486.06;2064805;28;20768;-69
2023/08/05 08:39:27;;;;;;;7.40;2.13;;;;;;;20.53;68.59;96485.38;2064550;28;20226;-69
2023/08/05 08:40:28;;;;;;;4.38;2.75;;;;;;;20.94;67.66;96481.84;2069643;28;20629;-69
2023/08/05 08:41:44;;;;;;;8.93;3.10;;;;;;;21.12;67.31;96487.34;2069034;28;20203;-69
2023/08/05 08:42:47;;;;;;;5.15;2.53;;;;;;;20.51;67.19;96482.00;2065047;28;20205;-69
2023/08/05 08:43:49;;;;;;;5.65;2.30;;;;;;;20.25;68.85;96478.97;2067139;28;20195;-69
2023/08/05 08:44:53;;;;;;;6.25;2.10;;;;;;;20.54;68.76;96481.75;2067653;28;20287;-69
2023/08/05 08:45:55;;;;;;;4.40;2.25;;;;;;;21.06;66.15;96482.59;2069437;28;20213;-69
2023/08/05 08:46:57;;;;;;;6.00;2.22;;;;;;;20.42;67.37;96487.25;2068375;28;20244;-68
2023/08/05 08:48:00;;;;;;;6.68;1.88;;;;;;;20.56;67.13;96489.56;2064747;28;20282;-69
2023/08/05 08:49:06;;;;;;;3.90;2.50;;;;;;;20.48;66.28;96484.09;2066464;28;20652;-69
2023/08/05 08:50:10;;;;;;;3.67;2.25;;;;;;;20.85;65.51;96478.22;2075016;28;20658;-68
2023/08/05 08:51:12;;;;;;;4.25;2.28;;;;;;;20.87;65.80;96481.56;2076687;28;20206;-69
2023/08/05 08:52:17;;;;;;;5.75;2.13;;;;;;;20.94;65.71;96474.75;2064795;28;20287;-69
2023/08/05 08:53:20;;;;;;;4.90;2.05;;;;;;;20.70;66.29;96477.75;2073339;28;20202;-69
2023/08/05 08:54:26;;;;;;;5.40;2.30;;;;;;;20.44;66.95;96483.50;2075617;28;20903;-69
2023/08/05 08:55:29;;;;;;;3.92;2.30;;;;;;;20.22;68.08;96481.91;2069249;28;20773;-68
2023/08/05 08:56:31;;;;;;;4.18;2.13;;;;;;;20.36;68.07;96472.75;2068353;28;20225;-68
2023/08/05 08:57:33;;;;;;;3.97;2.05;;;;;;;20.56;67.70;96486.91;2068582;28;20216;-68
2023/08/05 08:58:34;;;;;;;4.20;1.95;;;;;;;20.23;66.00;96480.94;2068382;28;20225;-68
2023/08/05 08:59:36;;;;;;;6.50;2.00;;;;;;;20.72;67.56;96481.13;2067549;28;20643;-68
2023/08/05 09:00:38;;;;;;;4.55;2.00;;;;;;;20.99;66.28;96483.13;2068290;28;20213;-68
2023/08/05 09:01:41;;;;;;;6.53;2.58;;;;;;;20.86;67.15;96475.44;2065021;28;20229;-68
2023/08/05 09:02:43;;;;;;;4.75;2.55;;;;;;;20.74;66.08;96478.34;2066428;28;20260;-68
2023/08/05 09:03:50;;;;;;;5.07;2.67;;;;;;;20.89;65.66;96479.63;2068832;28;20205;-68
2023/08/05 09:04:53;;;;;;;5.50;2.53;;;;;;;20.81;66.08;96482.97;2068225;28;20241;-68
2023/08/05 09:05:59;;;;;;;5.85;2.80;;;;;;;20.82;65.18;96482.00;2067804;28;20210;-68
2023/08/05 09:07:00;;;;;;;9.18;2.67;;;;;;;20.94;65.66;96480.06;2067734;28;20588;-68
2023/08/05 09:08:03;;;;;;;4.47;2.10;;;;;;;21.25;64.65;96492.38;2064575;28;20202;-68
2023/08/05 09:09:05;;;;;;;5.80;2.42;;;;;;;21.59;64.29;96489.34;2064369;28;20234;-68
2023/08/05 09:10:08;;;;;;;4.05;1.90;;;;;;;21.31;63.10;96475.91;2069090;28;20222;-68
2023/08/05 09:11:09;;;;;;;4.88;2.17;;;;;;;21.32;64.35;96485.56;2068500;28;20209;-68
2023/08/05 09:12:11;;;;;;;5.95;2.38;;;;;;;21.79;63.75;96480.38;2067826;28;20606;-68
2023/08/05 09:13:16;;;;;;;3.45;2.05;;;;;;;22.12;63.70;96477.34;2068922;28;20199;-68
2023/08/05 09:14:17;;;;;;;5.15;2.05;;;;;;;21.60;62.96;96481.22;2063874;28;20756;-68
2023/08/05 09:15:21;;;;;;;4.78;2.17;;;;;;;21.83;64.35;96486.22;2065100;28;20210;-68
2023/08/05 09:16:24;;;;;;;3.63;2.20;;;;;;;22.01;63.79;96470.38;2075800;28;20285;-68
2023/08/05 09:17:26;;;;;;;3.00;2.20;;;;;;;22.24;62.73;96476.19;2073861;28;20376;-68
2023/08/05 09:18:30;;;;;;;4.60;1.98;;;;;;;22.80;62.21;96482.41;2068688;28;20206;-68
2023/08/05 09:19:31;;;;;;;3.08;1.70;;;;;;;22.64;60.87;96477.72;2069358;28;20226;-68
2023/08/05 09:20:37;;;;;;;7.07;1.88;;;;;;;22.73;60.52;96478.66;2067808;28;20186;-68
2023/08/05 09:21:39;;;;;;;3.75;1.70;;;;;;;21.72;62.21;96484.56;2069827;28;20257;-68
2023/08/05 09:22:41;;;;;;;3.97;2.22;;;;;;;21.27;62.71;96479.78;2068022;28;20202;-68
2023/08/05 09:23:46;;;;;;;10.88;2.30;;;;;;;21.74;63.06;96481.75;2071890;28;20630;-68
2023/08/05 09:24:48;;;;;;;11.43;2.50;;;;;;;21.76;63.96;96488.59;2070420;28;20845;-68
2023/08/05 09:25:49;;;;;;;4.60;2.40;;;;;;;21.63;63.16;96480.94;2071036;28;20289;-68
2023/08/05 09:34:13;;;;;;;4.30;2.20;;;;;;;20.96;64.23;96482.56;2075440;28;20584;-68
2023/08/05 09:38:01;;;;;;;4.88;1.60;;;;;;;22.12;61.38;96478.19;2070205;28;20181;-68
2023/08/05 09:39:05;;;;;;;6.20;2.28;;;;;;;21.74;60.65;96479.09;2075739;28;20201;-68
2023/08/05 09:42:42;;;;;;;4.35;2.50;;;;;;;22.74;62.58;96472.34;2071678;28;20177;-68
2023/08/05 09:43:45;;;;;;;11.45;2.38;;;;;;;21.99;63.26;96475.00;2073557;28;20202;-68
2023/08/05 09:44:48;;;;;;;3.95;2.33;;;;;;;21.22;64.65;96477.56;2071432;28;20317;-68
2023/08/05 09:45:50;;;;;;;5.65;2.30;;;;;;;20.90;65.91;96481.31;2073411;28;20284;-68
2023/08/05 09:46:56;;;;;;;5.20;2.60;;;;;;;20.08;66.33;96476.97;2075569;28;20202;-68
2023/08/05 09:48:07;;;;;;;4.20;2.42;;;;;;;20.40;66.70;96471.50;2076119;28;20704;-68
2023/08/05 09:49:12;;;;;;;6.57;2.90;;;;;;;20.41;66.39;96480.31;2074409;28;20202;-68
2023/08/05 09:50:18;;;;;;;8.10;2.20;;;;;;;20.18;67.14;96476.00;2076538;28;20201;-68
2023/08/05 09:51:19;;;;;;;7.57;2.80;;;;;;;19.78;67.08;96474.09;2075548;28;20194;-68
2023/08/05 09:52:23;;;;;;;3.90;2.08;;;;;;;19.74;67.96;96467.38;2073991;28;20202;-68
2023/08/05 09:53:29;;;;;;;5.30;2.40;;;;;;;19.85;67.87;96466.50;2074454;28;20913;-68
2023/08/05 09:54:32;;;;;;;5.28;2.10;;;;;;;19.60;66.86;96465.88;2074861;28;20237;-68
2023/08/05 09:55:36;;;;;;;4.15;2.05;;;;;;;19.63;67.64;96472.75;2075780;28;20285;-68
2023/08/05 09:56:39;;;;;;;6.45;2.60;;;;;;;19.36;67.46;96463.50;2073559;28;20205;-68
2023/08/05 09:57:41;;;;;;;4.63;2.38;;;;;;;19.74;68.58;96467.38;2074130;28;20198;-68
2023/08/05 09:58:43;;;;;;;4.40;2.30;;;;;;;19.97;67.98;96462.81;2075559;28;20213;-68
2023/08/05 09:59:47;;;;;;;3.30;1.98;;;;;;;20.19;67.11;96456.50;2073930;28;20249;-68
2023/08/05 10:00:50;;;;;;;4.95;2.67;;;;;;;19.99;67.02;96458.22;2075274;28;20329;-68
2023/08/05 10:01:52;;;;;;;11.75;2.90;;;;;;;19.95;67.41;96459.44;2076206;28;20201;-68
2023/08/05 10:02:55;;;;;;;4.18;2.28;;;;;;;20.02;67.72;96457.97;2073749;28;20297;-67
2023/08/05 10:03:58;;;;;;;6.10;2.05;;;;;;;20.06;67.46;96450.56;2074733;28;20221;-68
2023/08/05 10:05:02;;;;;;;7.40;2.60;;;;;;;20.64;67.55;96455.22;2072916;28;20237;-68
2023/08/05 10:06:07;;;;;;;3.85;2.72;;;;;;;20.07;68.30;96446.94;2076451;28;20243;-68
2023/08/05 10:07:09;;;;;;;4.05;2.05;;;;;;;20.59;66.51;96451.31;2075603;28;20198;-68
2023/08/05 10:08:13;;;;;;;6.60;2.45;;;;;;;20.89;65.56;96442.47;2074426;28;20638;-68
2023/08/05 10:09:14;;;;;;;3.40;2.20;;;;;;;21.62;64.50;96441.22;2074301;28;20208;-68
2023/08/05 10:10:16;;;;;;;3.95;2.15;;;;;;;21.90;62.51;96441.31;2076092;28;20198;-68
2023/08/05 10:11:19;;;;;;;3.35;2.33;;;;;;;21.87;62.07;96437.13;2076583;28;20202;-68
2023/08/05 10:12:34;;;;;;;3.58;2.20;;;;;;;22.14;59.31;96435.50;2066783;28;20211;-68
2023/08/05 10:13:43;;;;;;;4.20;1.95;;;;;;;21.87;59.17;96436.28;2071285;28;20682;-68
2023/08/05 10:14:45;;;;;;;4.35;2.30;;;;;;;22.15;59.94;96443.31;2070385;28;20225;-68
2023/08/05 10:15:50;;;;;;;6.32;2.40;;;;;;;22.54;59.46;96437.03;2066905;28;20198;-67
2023/08/05 10:16:52;;;;;;;6.72;2.13;;;;;;;22.57;59.72;96439.38;2077235;28;20330;-67
2023/08/05 10:17:53;;;;;;;3.95;1.98;;;;;;;22.93;58.49;96434.13;2075376;28;20284;-67
2023/08/05 10:18:56;;;;;;;3.15;1.60;;;;;;;22.70;58.37;96439.03;2076988;28;20201;-67
2023/08/05 10:20:00;;;;;;;7.20;2.10;;;;;;;22.32;59.43;96440.88;2078195;28;20217;-67
2023/08/05 10:21:05;;;;;;;4.10;1.50;;;;;;;22.32;59.11;96440.88;2074474;28;20205;-67
2023/08/05 10:22:10;;;;;;;5.00;1.75;;;;;;;21.97;57.81;96439.75;2078789;28;20200;-67
2023/08/05 10:23:14;;;;;;;3.58;1.42;;;;;;;21.69;56.62;96440.50;2080722;28;20200;-68
2023/08/05 10:24:17;;;;;;;7.80;2.13;;;;;;;21.83;59.66;96433.09;2077512;28;20193;-67
2023/08/05 10:25:39;;;;;;;5.65;1.90;;;;;;;22.48;60.70;96438.44;2077286;28;20189;-67
2023/08/05 10:26:45;;;;;;;4.30;2.63;;;;;;;22.98;60.88;96431.00;2073931;28;20553;-68
2023/08/05 10:27:46;;;;;;;5.70;2.60;;;;;;;23.18;60.39;96439.69;2076166;28;20198;-68
2023/08/05 10:28:48;;;;;;;4.38;2.08;;;;;;;23.29;59.00;96428.81;2075066;28;20186;-67
2023/08/05 10:29:54;;;;;;;3.78;1.92;;;;;;;22.76;58.63;96426.94;2078671;28;20744;-67
2023/08/05 10:30:56;;;;;;;3.55;2.33;;;;;;;22.32;61.83;96438.22;2074402;28;20519;-68
2023/08/05 10:32:09;;;;;;;4.97;2.33;;;;;;;22.07;62.00;96426.41;2078571;28;20820;-67
2023/08/05 10:33:10;;;;;;;3.80;1.70;;;;;;;22.11;62.08;96428.66;2072752;28;20198;-67
2023/08/05 10:34:17;;;;;;;4.18;1.85;;;;;;;22.09;61.90;96429.78;2072656;28;20205;-67
2023/08/05 10:35:29;;;;;;;3.92;2.22;;;;;;;22.58;61.38;96424.28;2073026;28;20201;-68
2023/08/05 10:36:42;;;;;;;3.00;2.10;;;;;;;22.17;59.28;96427.25;2073024;28;20175;-68
2023/08/05 10:37:48;;;;;;;7.97;2.10;;;;;;;22.44;58.20;96417.63;2073297;28;20581;-67
2023/08/05 10:38:49;;;;;;;6.68;2.00;;;;;;;22.98;58.77;96421.19;2073180;28;20229;-68
2023/08/05 10:40:00;;;;;;;3.45;1.67;;;;;;;22.96;57.74;96417.00;2072221;28;20336;-67
2023/08/05 10:41:04;;;;;;;4.32;1.92;;;;;;;23.29;57.65;96412.00;2073144;28;20232;-67
2023/08/05 10:42:28;;;;;;;2.15;1.55;;;;;;;23.64;55.75;96404.94;2074636;28;20209;-67
2023/08/05 10:43:39;;;;;;;3.75;1.60;;;;;;;23.54;54.89;96410.38;2076283;28;20686;-67
2023/08/05 10:44:40;;;;;;;6.03;1.80;;;;;;;23.30;53.79;96403.03;2073570;28;20226;-67
2023/08/05 10:45:42;;;;;;;3.50;2.03;;;;;;;23.62;54.36;96402.44;2065097;28;20213;-67
2023/08/05 10:46:43;;;;;;;4.38;2.17;;;;;;;23.72;56.21;96406.81;2070068;28;20301;-67
2023/08/05 10:47:46;;;;;;;4.57;1.95;;;;;;;23.71;56.46;96400.66;2074528;28;20205;-67
2023/08/05 10:48:48;;;;;;;3.42;1.90;;;;;;;23.96;56.74;96409.66;2080508;28;20185;-67
2023/08/05 10:49:57;;;;;;;4.78;1.98;;;;;;;23.78;56.35;96400.84;2077657;28;20220;-67
2023/08/05 10:51:18;;;;;;;4.05;2.03;;;;;;;23.05;58.21;96396.63;2080573;28;20197;-67
2023/08/05 10:52:20;;;;;;;4.57;1.60;;;;;;;23.06;58.98;96400.94;2081261;28;20593;-67
2023/08/05 10:53:21;;;;;;;3.72;2.05;;;;;;;23.19;56.98;96397.94;2073788;28;20277;-67
2023/08/05 10:54:23;;;;;;;2.90;2.00;;;;;;;23.63;56.74;96401.44;2073066;28;20612;-67
2023/08/05 10:55:27;;;;;;;4.88;1.80;;;;;;;24.07;56.49;96408.53;2074963;28;20198;-67
2023/08/05 10:56:32;;;;;;;4.43;2.10;;;;;;;24.46;55.38;96405.38;2076575;28;20225;-67
2023/08/05 10:57:38;;;;;;;3.95;1.70;;;;;;;24.36;54.33;96402.00;2077935;28;20288;-67
2023/08/05 10:58:49;;;;;;;3.78;2.28;;;;;;;24.53;53.91;96402.06;2080668;28;20204;-64
2023/08/05 11:00:02;;;;;;;3.05;1.50;;;;;;;25.08;52.99;96398.88;2072325;28;20311;-65
2023/08/05 11:01:05;;;;;;;3.95;1.88;;;;;;;25.23;52.78;96396.41;2075766;28;20197;-64
2023/08/05 11:02:21;;;;;;;2.75;1.85;;;;;;;24.06;53.96;96398.03;2074940;28;20653;-64
2023/08/05 11:03:43;;;;;;;6.15;2.08;;;;;;;23.79;53.86;96392.72;2074603;28;20189;-64
2023/08/05 11:04:47;;;;;;;2.90;1.70;;;;;;;23.90;55.77;96388.13;2074577;28;20236;-64
2023/08/05 11:05:48;;;;;;;3.95;2.05;;;;;;;24.14;55.34;96387.44;2074833;28;20202;-62
2023/08/05 11:06:50;;;;;;;8.60;2.20;;;;;;;23.58;54.61;96382.41;2074629;28;20197;-64
2023/08/05 11:07:54;;;;;;;3.90;1.80;;;;;;;23.39;54.80;96383.47;2073302;28;20205;-63
2023/08/05 11:08:59;;;;;;;3.15;1.77;;;;;;;23.26;55.32;96375.00;2077576;28;20216;-63
2023/08/05 11:10:03;;;;;;;3.10;1.65;;;;;;;23.81;54.83;96376.56;2074506;28;20222;-64
2023/08/05 11:11:15;;;;;;;2.90;1.70;;;;;;;23.60;55.64;96372.47;2073549;28;20197;-64
2023/08/05 11:12:19;;;;;;;3.78;1.88;;;;;;;24.75;54.33;96377.47;2074599;28;20205;-63
2023/08/05 11:13:20;;;;;;;4.43;1.80;;;;;;;25.09;53.91;96375.69;2074684;28;20221;-64
2023/08/05 11:14:26;;;;;;;4.68;1.70;;;;;;;23.99;52.11;96368.53;2071149;28;20218;-64
2023/08/05 11:15:27;;;;;;;3.15;1.70;;;;;;;23.68;53.98;96371.66;2075360;28;20201;-64
2023/08/05 11:16:29;;;;;;;5.25;1.65;;;;;;;22.95;54.90;96365.56;2076291;28;20193;-64
2023/08/05 11:17:31;;;;;;;4.57;1.95;;;;;;;22.92;56.12;96373.88;2073994;28;20186;-64
2023/08/05 11:18:33;;;;;;;3.85;1.60;;;;;;;23.28;55.32;96371.22;2073040;28;20193;-64
2023/08/05 11:19:54;;;;;;;2.47;1.42;;;;;;;24.09;55.89;96373.75;2071503;28;20229;-65
2023/08/05 11:20:56;;;;;;;4.18;2.10;;;;;;;23.64;55.53;96365.81;2071980;28;20669;-63
2023/08/05 11:21:58;;;;;;;2.90;1.90;;;;;;;24.35;54.62;96368.31;2076330;28;20243;-63
2023/08/05 11:23:00;;;;;;;5.03;2.03;;;;;;;24.85;54.09;96372.00;2078391;28;20200;-63
2023/08/05 11:24:03;;;;;;;6.32;1.90;;;;;;;25.10;52.84;96369.31;2074760;28;20287;-63
2023/08/05 11:25:04;;;;;;;4.30;2.00;;;;;;;25.45;52.42;96364.69;2074848;28;20202;-64
2023/08/05 11:26:07;;;;;;;3.50;1.40;;;;;;;24.90;53.51;96366.13;2071915;28;20208;-66
2023/08/05 11:27:08;;;;;;;2.75;1.83;;;;;;;25.68;52.62;96369.34;2073934;28;20251;-65
2023/08/05 11:28:10;;;;;;;7.32;2.00;;;;;;;25.58;53.63;96359.66;2075814;28;20524;-63
2023/08/05 11:29:13;;;;;;;3.15;1.95;;;;;;;24.99;53.03;96358.97;2077014;28;20208;-63
2023/08/05 11:30:17;;;;;;;2.65;1.45;;;;;;;24.78;54.17;96363.81;2071813;28;20629;-63
2023/08/05 11:31:22;;;;;;;5.28;2.17;;;;;;;24.17;55.44;96362.28;2072336;28;20247;-63
2023/08/05 11:32:24;;;;;;;7.18;2.03;;;;;;;25.02;54.09;96356.81;2075375;28;20825;-63
2023/08/05 11:33:26;;;;;;;4.03;1.50;;;;;;;25.98;53.02;96358.88;2075427;28;20229;-63
2023/08/05 11:34:27;;;;;;;6.68;1.85;;;;;;;26.59;50.75;96351.13;2074546;28;20224;-64
2023/08/05 11:35:29;;;;;;;10.70;1.60;;;;;;;26.79;50.38;96356.88;2071624;28;20228;-63
2023/08/05 11:36:30;;;;;;;4.43;2.03;;;;;;;25.97;51.19;96358.06;2075013;28;20190;-63
2023/08/05 11:37:37;;;;;;;2.97;1.58;;;;;;;26.00;51.79;96348.84;2071852;28;20695;-63
2023/08/05 11:38:39;;;;;;;4.82;1.80;;;;;;;25.79;52.28;96342.22;2073185;28;20213;-63
2023/08/05 11:39:41;;;;;;;2.85;1.52;;;;;;;25.38;52.82;96353.00;2071090;28;20272;-64
2023/08/05 11:40:48;;;;;;;3.83;1.77;;;;;;;25.10;52.28;96354.16;2073249;28;20198;-64
2023/08/05 11:41:49;;;;;;;2.88;1.63;;;;;;;24.00;53.09;96353.34;2073155;28;20528;-64
2023/08/05 11:42:52;;;;;;;3.95;1.88;;;;;;;23.71;53.25;96349.19;2075172;28;20197;-65
2023/08/05 11:43:54;;;;;;;4.70;1.60;;;;;;;23.66;53.56;96343.50;2074284;28;20537;-64
2023/08/05 11:44:56;;;;;;;9.15;1.77;;;;;;;23.31;54.13;96346.09;2074033;28;20258;-64
2023/08/05 11:45:58;;;;;;;3.30;1.80;;;;;;;23.33;55.23;96336.13;2075450;28;20197;-64
2023/08/05 11:47:03;;;;;;;3.83;1.58;;;;;;;23.46;55.67;96336.56;2071708;28;20205;-64
2023/08/05 11:48:25;;;;;;;3.83;1.60;;;;;;;23.22;56.65;96336.38;2072618;28;20270;-64
2023/08/05 11:49:27;;;;;;;3.13;1.73;;;;;;;22.86;57.47;96341.72;2074378;28;20232;-64
2023/08/05 11:50:36;;;;;;;5.75;1.92;;;;;;;23.12;57.69;96341.75;2074242;28;20624;-64
2023/08/05 11:51:44;;;;;;;3.15;1.98;;;;;;;22.63;57.17;96329.69;2065914;28;20905;-64
2023/08/05 11:53:02;;;;;;;6.07;1.65;;;;;;;22.01;58.75;96338.28;2070714;28;20197;-64
2023/08/05 11:54:08;;;;;;;5.22;1.50;;;;;;;22.02;58.90;96337.31;2073302;28;20831;-64
2023/08/05 11:55:09;;;;;;;2.35;1.55;;;;;;;21.97;58.67;96330.78;2075319;28;20202;-64
2023/08/05 11:56:22;;;;;;;2.20;1.40;;;;;;;22.13;58.15;96327.47;2075788;28;20209;-64
2023/08/05 11:57:24;;;;;;;4.95;1.50;;;;;;;21.96;59.82;96334.41;2068270;28;20202;-64
2023/08/05 11:58:32;;;;;;;2.65;1.55;;;;;;;22.25;59.55;96328.94;2062781;28;20281;-64
2023/08/05 11:59:45;;;;;;;2.88;1.33;;;;;;;21.85;59.43;96322.16;2068511;28;20675;-64
2023/08/05 12:00:53;;;;;;;4.75;2.00;;;;;;;21.61;60.02;96327.97;2077503;28;20228;-64
2023/08/05 12:01:54;;;;;;;2.15;1.42;;;;;;;21.85;60.17;96320.34;2077048;28;20202;-64
2023/08/05 12:02:56;;;;;;;2.83;1.83;;;;;;;21.57;58.99;96324.75;2075622;28;20197;-64
2023/08/05 12:03:58;;;;;;;6.95;1.83;;;;;;;21.65;59.51;96327.56;2076865;28;20258;-64
2023/08/05 12:05:00;;;;;;;4.10;1.95;;;;;;;21.62;58.90;96327.00;2077145;28;20244;-64